This is the latest recevied weather packets stored in our database for station/object TONGUE. If no packets are shown the sender has not sent any weather packets the latest 10 day(s).
| Time | Temp. | Humidity | Pressure | Rain* | Wind** | Luminosity | Snow |
|---|---|---|---|---|---|---|---|
| 1788071403 | 12.78° C | 100% | 0 hPa | - | - | - | - |
| 1788060003 | 15.56° C | 87% | 0 hPa | - | - | - | - |
| 1788059403 | 15.56° C | 85% | 0 hPa | - | - | - | - |
| 1788058803 | 16.11° C | 85% | 0 hPa | - | - | - | - |
| 1788058203 | 15.56° C | 85% | 0 hPa | - | - | - | - |
| 1788057603 | 16.11° C | 85% | 0 hPa | - | - | - | - |
| 1788057003 | 16.11° C | 83% | 0 hPa | - | - | - | - |
| 1788056403 | 16.11° C | 86% | 0 hPa | - | - | - | - |
| 1788055803 | 16.67° C | 84% | 0 hPa | - | - | - | - |
| 1788055204 | 16.67° C | 78% | 0 hPa | - | - | - | - |
| 1788054603 | 16.67° C | 77% | 0 hPa | - | - | - | - |
| 1788054003 | 16.67° C | 77% | 0 hPa | - | - | - | - |
| 1788053405 | 17.22° C | 75% | 0 hPa | - | - | - | - |
| 1788052803 | 17.22° C | 73% | 0 hPa | - | - | - | - |
| 1788052203 | 17.78° C | 70% | 0 hPa | - | - | - | - |
| 1788051604 | 17.78° C | 75% | 0 hPa | - | - | - | - |
| 1788051003 | 18.33° C | 72% | 0 hPa | - | - | - | - |
| 1788050403 | 17.78° C | 73% | 0 hPa | - | - | - | - |
| 1788049803 | 17.22° C | 73% | 0 hPa | - | - | - | - |
| 1788049203 | 17.78° C | 72% | 0 hPa | - | - | - | - |
| 1788048603 | 17.78° C | 68% | 0 hPa | - | - | - | - |
| 1788048003 | 18.89° C | 65% | 0 hPa | - | - | - | - |
| 1788047403 | 18.33° C | 68% | 0 hPa | - | - | - | - |
| 1788046203 | 18.89° C | 68% | 0 hPa | - | - | - | - |
| 1788045603 | 18.33° C | 69% | 0 hPa | - | - | - | - |
* Rain since midnight (hover to see other rain measurements)
** Current wind speed in m/s (hover to see current wind gust speed)